createdAt,value
2023-02-15T00:00:35.150Z,2.89
2023-02-15T00:03:08.015Z,2.92
2023-02-15T00:05:41.210Z,2.93
2023-02-15T00:08:14.054Z,2.92
2023-02-15T00:10:47.500Z,2.88
2023-02-15T00:13:20.463Z,2.88
2023-02-15T00:15:53.249Z,2.90
2023-02-15T00:18:25.872Z,2.84
2023-02-15T00:20:59.180Z,2.86
2023-02-15T00:23:32.333Z,2.86
2023-02-15T00:26:13.501Z,2.86
2023-02-15T00:28:46.744Z,2.88
2023-02-15T00:31:20.342Z,2.92
2023-02-15T00:33:53.242Z,2.92
2023-02-15T00:36:26.319Z,2.92
2023-02-15T00:38:59.429Z,2.92
2023-02-15T00:41:32.541Z,2.92
2023-02-15T00:44:05.479Z,2.92
2023-02-15T00:46:39.103Z,2.93
2023-02-15T00:49:15.532Z,2.94
2023-02-15T00:51:48.495Z,2.90
2023-02-15T00:54:21.571Z,2.90
2023-02-15T00:56:55.018Z,2.91
2023-02-15T00:59:27.732Z,2.94
2023-02-15T01:02:03.466Z,2.93
2023-02-15T01:04:36.104Z,2.92
2023-02-15T01:07:09.470Z,2.96
2023-02-15T01:09:42.097Z,3.01
2023-02-15T01:12:15.633Z,3.00
2023-02-15T01:14:48.383Z,2.97
2023-02-15T01:17:23.195Z,2.95
2023-02-15T01:20:17.117Z,2.87
2023-02-15T01:22:51.495Z,2.84
2023-02-15T01:25:25.547Z,2.87
2023-02-15T01:27:58.427Z,2.86
2023-02-15T01:30:34.258Z,2.86
2023-02-15T01:33:07.185Z,2.88
2023-02-15T01:35:41.184Z,2.85
2023-02-15T01:38:13.977Z,2.86
2023-02-15T01:40:46.578Z,2.86
2023-02-15T01:43:19.698Z,2.85
2023-02-15T01:45:53.504Z,2.79
2023-02-15T01:48:30.204Z,2.70
2023-02-15T01:51:05.343Z,2.74
2023-02-15T01:53:41.523Z,2.77
2023-02-15T01:56:18.019Z,2.70
2023-02-15T01:58:59.086Z,2.72
2023-02-15T02:01:32.347Z,2.73
2023-02-15T02:04:12.524Z,2.71
2023-02-15T02:06:46.920Z,2.71
2023-02-15T02:09:19.603Z,2.69
2023-02-15T02:11:55.459Z,2.72
2023-02-15T02:14:29.006Z,2.73
2023-02-15T02:17:11.866Z,2.71
2023-02-15T02:20:09.478Z,2.70
2023-02-15T02:23:11.359Z,2.69
2023-02-15T02:26:21.522Z,2.71
2023-02-15T02:29:18.881Z,2.74
2023-02-15T02:32:15.561Z,2.74
2023-02-15T02:34:53.508Z,2.72
2023-02-15T02:37:31.982Z,2.69
2023-02-15T02:40:13.929Z,2.70
2023-02-15T02:42:52.419Z,2.68
2023-02-15T02:45:35.331Z,2.60
2023-02-15T02:48:12.647Z,2.54
2023-02-15T02:50:45.939Z,2.55
2023-02-15T02:53:17.390Z,2.56
2023-02-15T02:55:53.119Z,2.52
2023-02-15T02:58:32.531Z,2.56
2023-02-15T03:01:12.308Z,2.53
2023-02-15T03:03:48.194Z,2.55
2023-02-15T03:06:25.420Z,2.53
2023-02-15T03:09:06.721Z,2.55
2023-02-15T03:11:42.159Z,2.54
2023-02-15T03:14:16.612Z,2.54
2023-02-15T03:16:53.976Z,2.53
2023-02-15T03:19:31.725Z,2.48
2023-02-15T03:22:11.825Z,2.51
2023-02-15T03:24:48.064Z,2.48
2023-02-15T03:27:25.087Z,2.41
2023-02-15T03:30:01.493Z,2.38
2023-02-15T03:32:37.304Z,2.33
2023-02-15T03:35:12.286Z,2.31
2023-02-15T03:37:49.706Z,2.24
2023-02-15T03:40:43.100Z,2.27
2023-02-15T03:43:21.238Z,2.22
2023-02-15T03:46:04.267Z,2.13
2023-02-15T03:48:41.836Z,2.10
2023-02-15T03:51:37.950Z,2.02
2023-02-15T03:54:13.922Z,2.01
2023-02-15T03:57:07.736Z,1.80
2023-02-15T03:59:57.375Z,1.84
2023-02-15T04:02:40.109Z,1.69
2023-02-15T04:05:12.866Z,1.74
2023-02-15T04:07:45.924Z,1.78
2023-02-15T04:10:36.088Z,1.78
2023-02-15T04:13:08.905Z,1.78
2023-02-15T04:15:58.498Z,1.70
2023-02-15T04:18:49.214Z,1.73
2023-02-15T04:21:39.861Z,1.78
2023-02-15T04:24:31.104Z,1.85
2023-02-15T04:27:04.720Z,1.74
2023-02-15T04:29:37.503Z,1.71
2023-02-15T04:32:10.421Z,1.57
2023-02-15T04:34:43.028Z,1.47
2023-02-15T04:37:15.590Z,1.52
2023-02-15T04:39:48.330Z,1.61
2023-02-15T04:42:20.919Z,1.51
2023-02-15T04:44:54.081Z,1.50
2023-02-15T04:47:27.745Z,1.51
2023-02-15T04:50:00.925Z,1.44
2023-02-15T04:52:34.087Z,1.47
2023-02-15T04:55:07.377Z,1.47
2023-02-15T04:57:39.890Z,1.51
2023-02-15T05:00:14.739Z,1.59
2023-02-15T05:02:47.417Z,1.64
2023-02-15T05:05:20.877Z,1.59
2023-02-15T05:07:53.493Z,1.61
2023-02-15T05:10:26.288Z,1.61
2023-02-15T05:12:58.890Z,1.64
2023-02-15T05:15:31.856Z,1.67
2023-02-15T05:18:05.107Z,1.69
2023-02-15T05:20:38.378Z,1.70
2023-02-15T05:23:11.590Z,1.69
2023-02-15T05:26:06.139Z,1.66
2023-02-15T05:28:40.760Z,1.65
2023-02-15T05:31:16.577Z,1.73
2023-02-15T05:33:49.675Z,1.69
2023-02-15T05:36:24.493Z,1.71
2023-02-15T05:38:57.264Z,1.68
2023-02-15T05:41:30.376Z,1.72
2023-02-15T05:44:02.908Z,1.69
2023-02-15T05:46:36.734Z,1.61
2023-02-15T05:49:09.485Z,1.60
2023-02-15T05:51:42.439Z,1.56
2023-02-15T05:54:15.327Z,1.42
2023-02-15T05:56:48.525Z,1.30
2023-02-15T05:59:21.294Z,1.33
2023-02-15T06:01:54.857Z,1.41
2023-02-15T06:04:27.695Z,1.44
2023-02-15T06:07:00.375Z,1.39
2023-02-15T06:09:33.859Z,1.33
2023-02-15T06:12:06.869Z,1.27
2023-02-15T06:14:39.866Z,1.36
2023-02-15T06:17:12.547Z,1.34
2023-02-15T06:19:45.919Z,1.32
2023-02-15T06:22:21.668Z,1.20
2023-02-15T06:24:54.364Z,1.11
2023-02-15T06:27:28.137Z,1.13
2023-02-15T06:30:00.646Z,1.17
2023-02-15T06:32:34.907Z,1.12
2023-02-15T06:35:08.224Z,1.18
2023-02-15T06:37:41.879Z,1.27
2023-02-15T06:40:15.498Z,1.26
2023-02-15T06:42:48.606Z,1.26
2023-02-15T06:45:22.648Z,1.25
2023-02-15T06:47:55.291Z,1.29
2023-02-15T06:50:28.169Z,1.17
2023-02-15T06:53:03.869Z,1.20
2023-02-15T06:55:36.878Z,1.19
2023-02-15T06:58:10.112Z,1.20
2023-02-15T07:00:42.816Z,1.15
2023-02-15T07:03:17.918Z,1.29
2023-02-15T07:05:51.371Z,1.22
2023-02-15T07:08:24.472Z,1.25
2023-02-15T07:11:19.127Z,1.34
2023-02-15T07:13:53.788Z,1.37
2023-02-15T07:16:26.382Z,1.39
2023-02-15T07:18:59.229Z,1.41
2023-02-15T07:21:31.939Z,1.46
2023-02-15T07:24:05.622Z,1.51
2023-02-15T07:26:38.276Z,1.46
2023-02-15T07:29:11.087Z,1.34
2023-02-15T07:31:44.548Z,1.40
2023-02-15T07:34:17.847Z,1.35
2023-02-15T07:36:53.177Z,1.25
2023-02-15T07:39:26.037Z,1.25
2023-02-15T07:41:58.787Z,1.21
2023-02-15T07:44:36.797Z,1.20
2023-02-15T07:47:09.797Z,1.31
2023-02-15T07:49:43.815Z,1.41
2023-02-15T07:52:16.449Z,1.47
2023-02-15T07:54:49.429Z,1.42
2023-02-15T07:57:22.818Z,1.41
2023-02-15T07:59:55.859Z,1.34
2023-02-15T08:02:30.417Z,1.26
2023-02-15T08:05:03.395Z,1.29
2023-02-15T08:07:35.959Z,1.31
2023-02-15T08:10:31.844Z,1.33
2023-02-15T08:13:04.611Z,1.34
2023-02-15T08:15:37.321Z,1.30
2023-02-15T08:18:09.993Z,1.32
2023-02-15T08:20:44.762Z,1.39
2023-02-15T08:23:17.554Z,1.42
2023-02-15T08:25:50.785Z,1.47
2023-02-15T08:28:23.841Z,1.46
2023-02-15T08:30:56.717Z,1.43
2023-02-15T08:33:29.877Z,1.38
2023-02-15T08:36:07.607Z,1.31
2023-02-15T08:38:40.809Z,1.29
2023-02-15T08:41:20.349Z,1.29
2023-02-15T08:43:55.168Z,1.43
2023-02-15T08:46:30.018Z,1.55
2023-02-15T08:49:03.297Z,1.65
2023-02-15T08:51:38.603Z,1.46
2023-02-15T08:54:13.269Z,1.38
2023-02-15T08:56:47.136Z,1.47
2023-02-15T08:59:21.434Z,1.36
2023-02-15T09:01:55.798Z,1.37
2023-02-15T09:04:28.504Z,1.37
2023-02-15T09:07:01.524Z,1.36
2023-02-15T09:09:34.508Z,1.38
2023-02-15T09:12:08.087Z,1.37
2023-02-15T09:14:41.034Z,1.33
2023-02-15T09:17:16.125Z,1.40
2023-02-15T09:19:48.889Z,1.46
2023-02-15T09:22:22.376Z,1.52
2023-02-15T09:24:55.780Z,1.47
2023-02-15T09:27:28.764Z,1.45
2023-02-15T09:30:01.640Z,1.58
2023-02-15T09:32:34.508Z,1.59
2023-02-15T09:35:07.912Z,1.52
2023-02-15T09:37:41.257Z,1.51
2023-02-15T09:40:19.121Z,1.65
2023-02-15T09:43:19.392Z,1.63
2023-02-15T09:46:05.585Z,1.64
2023-02-15T09:48:49.663Z,1.71
2023-02-15T09:52:02.222Z,1.66
2023-02-15T09:54:56.767Z,1.56
2023-02-15T09:57:39.476Z,1.76
2023-02-15T10:00:24.701Z,1.81
2023-02-15T10:03:15.895Z,1.86
2023-02-15T10:06:06.805Z,1.94
2023-02-15T10:09:03.127Z,2.12
2023-02-15T10:11:51.396Z,2.22
2023-02-15T10:14:48.388Z,2.09
2023-02-15T10:17:32.387Z,1.98
2023-02-15T10:20:19.322Z,2.16
2023-02-15T10:23:12.585Z,2.01
2023-02-15T10:25:49.863Z,1.99
2023-02-15T10:28:26.699Z,2.11
2023-02-15T10:31:08.133Z,2.16
2023-02-15T10:33:45.279Z,2.19
2023-02-15T10:36:42.956Z,2.18
2023-02-15T10:39:26.484Z,2.21
2023-02-15T10:42:08.340Z,2.06
2023-02-15T10:44:57.498Z,2.20
2023-02-15T10:47:45.990Z,2.31
2023-02-15T10:50:32.576Z,2.20
2023-02-15T10:53:17.846Z,2.16
2023-02-15T10:55:58.416Z,2.26
2023-02-15T10:58:48.977Z,2.23
2023-02-15T11:01:28.745Z,2.21
2023-02-15T11:04:42.949Z,2.30
2023-02-15T11:07:22.734Z,2.29
2023-02-15T11:09:59.537Z,2.35
2023-02-15T11:12:34.300Z,2.52
2023-02-15T11:15:18.260Z,2.62
2023-02-15T11:17:51.982Z,2.45
2023-02-15T11:20:32.026Z,2.47
2023-02-15T11:23:16.640Z,2.64
2023-02-15T11:25:55.539Z,2.50
2023-02-15T11:28:34.276Z,2.44
2023-02-15T11:31:18.842Z,2.35
2023-02-15T11:33:55.624Z,2.38
2023-02-15T11:36:32.003Z,2.47
2023-02-15T11:39:12.501Z,2.43
2023-02-15T11:41:51.413Z,2.62
2023-02-15T11:44:29.163Z,2.51
2023-02-15T11:47:20.242Z,2.61
2023-02-15T11:49:53.123Z,2.73
2023-02-15T11:52:25.796Z,2.85
2023-02-15T11:54:58.674Z,2.96
2023-02-15T11:57:41.787Z,2.95
2023-02-15T12:00:26.089Z,2.65
2023-02-15T12:02:57.794Z,2.86
2023-02-15T12:05:30.952Z,2.89
2023-02-15T12:08:13.124Z,3.02
2023-02-15T12:14:17.053Z,3.17
2023-02-15T12:16:52.655Z,3.27
2023-02-15T12:19:34.760Z,3.13
2023-02-15T12:22:11.133Z,3.30
2023-02-15T12:24:50.768Z,3.29
2023-02-15T12:27:27.401Z,3.38
2023-02-15T12:30:03.771Z,3.66
2023-02-15T12:32:49.966Z,3.91
2023-02-15T12:35:30.557Z,4.09
2023-02-15T12:38:07.424Z,4.04
2023-02-15T12:40:42.507Z,4.08
2023-02-15T12:43:30.353Z,4.25
2023-02-15T12:46:23.155Z,4.27
2023-02-15T12:51:56.844Z,4.77
2023-02-15T12:54:41.691Z,4.96
2023-02-15T12:57:35.017Z,4.88
2023-02-15T13:00:10.444Z,4.83
2023-02-15T13:02:49.463Z,4.88
2023-02-15T13:05:27.559Z,4.92
2023-02-15T13:08:02.778Z,5.04
2023-02-15T13:10:38.902Z,5.02
2023-02-15T13:13:23.414Z,5.02
2023-02-15T13:16:11.318Z,5.15
2023-02-15T13:18:55.764Z,5.17
2023-02-15T13:21:33.395Z,5.27
2023-02-15T13:24:08.143Z,5.39
2023-02-15T13:26:46.030Z,5.26
2023-02-15T13:29:27.181Z,5.08
2023-02-15T13:32:10.667Z,5.26
2023-02-15T13:34:44.579Z,5.29
2023-02-15T13:37:22.146Z,5.38
2023-02-15T13:40:00.923Z,5.39
2023-02-15T13:42:40.218Z,5.51
2023-02-15T13:45:32.050Z,5.65
2023-02-15T13:48:17.064Z,5.59
2023-02-15T13:51:03.982Z,5.54
2023-02-15T13:53:52.851Z,5.64
2023-02-15T13:56:39.031Z,5.54
2023-02-15T13:59:46.870Z,5.36
2023-02-15T14:02:48.812Z,5.31
2023-02-15T14:05:32.629Z,5.36
2023-02-15T14:08:14.372Z,5.43
2023-02-15T14:11:02.481Z,5.48
2023-02-15T14:14:08.618Z,5.44
2023-02-15T14:17:05.753Z,5.44
2023-02-15T14:19:47.131Z,5.50
2023-02-15T14:22:33.358Z,5.55
2023-02-15T14:25:18.743Z,5.34
2023-02-15T14:28:02.538Z,5.48
2023-02-15T14:30:37.818Z,5.50
2023-02-15T14:33:21.672Z,5.57
2023-02-15T14:35:55.467Z,5.71
2023-02-15T14:38:41.631Z,5.76
2023-02-15T14:41:20.572Z,5.71
2023-02-15T14:44:04.271Z,5.59
2023-02-15T14:46:41.621Z,5.47
2023-02-15T14:49:18.257Z,5.28
2023-02-15T14:52:06.596Z,5.20
2023-02-15T14:55:02.562Z,5.19
2023-02-15T14:57:40.097Z,5.15
2023-02-15T15:00:34.526Z,5.21
2023-02-15T15:03:23.013Z,5.23
2023-02-15T15:06:01.755Z,5.27
2023-02-15T15:08:39.987Z,5.24
2023-02-15T15:11:44.783Z,5.22
2023-02-15T15:14:47.248Z,5.17
2023-02-15T15:17:59.601Z,5.15
2023-02-15T15:20:51.771Z,5.14
2023-02-15T15:23:53.426Z,5.06
2023-02-15T15:26:38.171Z,5.10
2023-02-15T15:29:11.333Z,4.94
2023-02-15T15:31:50.544Z,4.96
2023-02-15T15:34:47.345Z,4.81
2023-02-15T15:38:03.603Z,4.81
2023-02-15T15:41:06.201Z,4.85
2023-02-15T15:44:12.421Z,4.75
2023-02-15T15:47:18.121Z,4.61
2023-02-15T15:49:57.563Z,4.54
2023-02-15T15:52:39.924Z,4.55
2023-02-15T15:55:20.902Z,4.53
2023-02-15T15:57:56.045Z,4.52
2023-02-15T16:00:41.837Z,4.50
2023-02-15T16:03:23.784Z,4.45
2023-02-15T16:06:01.923Z,4.40
2023-02-15T16:08:38.026Z,4.42
2023-02-15T16:11:20.985Z,4.37
2023-02-15T16:13:59.921Z,4.32
2023-02-15T16:16:34.543Z,4.21
2023-02-15T16:19:08.944Z,4.06
2023-02-15T16:21:42.214Z,3.98
2023-02-15T16:24:36.115Z,3.92
2023-02-15T16:27:30.242Z,3.83
2023-02-15T16:30:13.688Z,3.76
2023-02-15T16:32:47.509Z,3.69
2023-02-15T16:35:19.423Z,3.62
2023-02-15T16:37:56.822Z,3.51
2023-02-15T16:40:43.849Z,3.52
2023-02-15T16:43:27.694Z,3.47
2023-02-15T16:46:07.759Z,3.39
2023-02-15T16:48:48.582Z,3.39
2023-02-15T16:51:28.493Z,3.33
2023-02-15T16:54:07.326Z,3.26
2023-02-15T16:56:50.060Z,3.26
2023-02-15T16:59:39.592Z,3.14
2023-02-15T17:02:40.226Z,3.09
2023-02-15T17:05:21.340Z,3.10
2023-02-15T17:08:16.129Z,3.05
2023-02-15T17:10:47.843Z,3.03
2023-02-15T17:13:23.985Z,2.85
2023-02-15T17:16:34.836Z,2.87
2023-02-15T17:19:17.621Z,2.84
2023-02-15T17:22:06.185Z,2.83
2023-02-15T17:24:41.632Z,2.82
2023-02-15T17:27:21.434Z,2.81
2023-02-15T17:29:59.055Z,2.81
2023-02-15T17:32:37.534Z,2.73
2023-02-15T17:35:22.205Z,2.64
2023-02-15T17:38:03.023Z,2.53
2023-02-15T17:40:37.310Z,2.37
2023-02-15T17:43:10.131Z,2.28
2023-02-15T17:45:47.015Z,2.27
2023-02-15T17:48:33.158Z,2.19
2023-02-15T17:51:08.205Z,2.14
2023-02-15T17:53:42.473Z,2.06
2023-02-15T17:56:16.617Z,2.02
2023-02-15T17:58:49.567Z,1.98
2023-02-15T18:01:43.298Z,1.98
2023-02-15T18:04:35.696Z,1.95
2023-02-15T18:07:27.906Z,1.92
2023-02-15T18:10:17.353Z,1.95
2023-02-15T18:12:49.891Z,1.94
2023-02-15T18:15:22.499Z,1.90
2023-02-15T18:17:56.906Z,1.90
2023-02-15T18:20:37.164Z,1.94
2023-02-15T18:23:13.920Z,1.90
2023-02-15T18:25:48.871Z,1.82
2023-02-15T18:28:21.394Z,1.70
2023-02-15T18:30:54.107Z,1.69
2023-02-15T18:33:38.248Z,1.64
2023-02-15T18:36:16.441Z,1.54
2023-02-15T18:38:49.352Z,1.47
2023-02-15T18:41:23.737Z,1.45
2023-02-15T18:44:07.304Z,1.34
2023-02-15T18:46:42.722Z,1.24
2023-02-15T18:49:15.584Z,1.30
2023-02-15T18:51:49.538Z,1.31
2023-02-15T18:54:25.298Z,1.33
2023-02-15T18:57:00.383Z,1.35
2023-02-15T18:59:34.373Z,1.35
2023-02-15T19:02:14.021Z,1.34
2023-02-15T19:04:48.016Z,1.34
2023-02-15T19:07:25.454Z,1.37
2023-02-15T19:10:01.888Z,1.36
2023-02-15T19:12:37.767Z,1.33
2023-02-15T19:15:18.743Z,1.32
2023-02-15T19:17:54.459Z,1.28
2023-02-15T19:20:37.020Z,1.29
2023-02-15T19:23:14.168Z,1.28
2023-02-15T19:25:49.730Z,1.32
2023-02-15T19:28:28.108Z,1.33
2023-02-15T19:31:01.032Z,1.35
2023-02-15T19:33:33.718Z,1.37
2023-02-15T19:36:08.058Z,1.31
2023-02-15T19:38:41.489Z,1.31
2023-02-15T19:41:18.071Z,1.31
2023-02-15T19:43:56.237Z,1.27
2023-02-15T19:46:29.396Z,1.30
2023-02-15T19:49:05.523Z,1.30
2023-02-15T19:51:42.744Z,1.25
2023-02-15T19:54:37.002Z,1.21
2023-02-15T19:57:17.431Z,1.27
2023-02-15T19:59:51.427Z,1.33
2023-02-15T20:02:24.317Z,1.35
2023-02-15T20:04:58.221Z,1.35
2023-02-15T20:07:31.937Z,1.42
2023-02-15T20:10:05.292Z,1.54
2023-02-15T20:12:38.695Z,1.56
2023-02-15T20:15:21.680Z,1.58
2023-02-15T20:17:57.774Z,1.57
2023-02-15T20:20:36.477Z,1.57
2023-02-15T20:23:14.527Z,1.53
2023-02-15T20:25:47.612Z,1.44
2023-02-15T20:28:22.506Z,1.44
2023-02-15T20:30:56.181Z,1.44
2023-02-15T20:33:30.898Z,1.38
2023-02-15T20:36:03.918Z,1.32
2023-02-15T20:38:36.768Z,1.30
2023-02-15T20:41:31.992Z,1.29
2023-02-15T20:44:13.519Z,1.31
2023-02-15T20:46:46.208Z,1.24
2023-02-15T20:49:19.122Z,1.20
2023-02-15T20:51:52.751Z,1.17
2023-02-15T20:54:28.417Z,1.19
2023-02-15T20:57:06.374Z,1.25
2023-02-15T20:59:39.631Z,1.24
2023-02-15T21:02:20.678Z,1.24
2023-02-15T21:04:58.246Z,1.21
2023-02-15T21:07:30.771Z,1.16
2023-02-15T21:10:03.858Z,1.17
2023-02-15T21:12:37.948Z,1.12
2023-02-15T21:15:29.109Z,1.11
2023-02-15T21:18:04.513Z,1.05
2023-02-15T21:20:38.978Z,1.04
2023-02-15T21:23:16.339Z,1.03
2023-02-15T21:25:49.269Z,0.98
2023-02-15T21:28:24.523Z,0.95
2023-02-15T21:31:00.170Z,0.94
2023-02-15T21:33:36.131Z,0.93
2023-02-15T21:36:16.337Z,0.96
2023-02-15T21:38:50.070Z,0.96
2023-02-15T21:41:49.488Z,0.95
2023-02-15T21:44:41.416Z,0.90
2023-02-15T21:47:40.124Z,0.87
2023-02-15T21:50:33.389Z,0.88
2023-02-15T21:53:07.714Z,0.85
2023-02-15T21:55:40.415Z,0.84
2023-02-15T21:58:18.667Z,0.85
2023-02-15T22:00:54.934Z,0.85
2023-02-15T22:03:29.992Z,0.85
2023-02-15T22:06:04.874Z,0.87
2023-02-15T22:08:37.678Z,0.84
2023-02-15T22:11:14.853Z,0.85
2023-02-15T22:13:48.294Z,0.86
2023-02-15T22:16:23.827Z,0.84
2023-02-15T22:18:57.867Z,0.81
2023-02-15T22:21:32.135Z,0.80
2023-02-15T22:24:03.001Z,0.80
2023-02-15T22:26:35.666Z,0.73
2023-02-15T22:29:08.254Z,0.75
2023-02-15T22:31:40.955Z,0.76
2023-02-15T22:34:28.539Z,0.75
2023-02-15T22:37:03.413Z,0.75
2023-02-15T22:39:37.814Z,0.75
2023-02-15T22:42:21.677Z,0.76
2023-02-15T22:44:53.085Z,0.74
2023-02-15T22:47:27.633Z,0.68
2023-02-15T22:50:00.282Z,0.68
2023-02-15T22:52:32.783Z,0.67
2023-02-15T22:55:05.774Z,0.68
2023-02-15T22:57:38.521Z,0.66
2023-02-15T23:00:17.166Z,0.66
2023-02-15T23:02:49.864Z,0.65
2023-02-15T23:05:25.551Z,0.64
2023-02-15T23:08:00.754Z,0.65
2023-02-15T23:10:33.973Z,0.62
2023-02-15T23:13:26.245Z,0.63
2023-02-15T23:16:02.577Z,0.62
2023-02-15T23:18:39.078Z,0.62
2023-02-15T23:21:21.241Z,0.59
2023-02-15T23:23:55.462Z,0.59
2023-02-15T23:26:30.106Z,0.57
2023-02-15T23:29:04.242Z,0.56
2023-02-15T23:31:39.287Z,0.54
2023-02-15T23:34:18.022Z,0.54
2023-02-15T23:36:52.148Z,0.53
2023-02-15T23:39:43.499Z,0.54
2023-02-15T23:42:18.106Z,0.53
2023-02-15T23:44:51.752Z,0.53
2023-02-15T23:47:42.646Z,0.49
2023-02-15T23:50:22.116Z,0.46
2023-02-15T23:52:56.637Z,0.43
2023-02-15T23:55:35.625Z,0.44
2023-02-15T23:58:12.982Z,0.42
